createdAt,value
2018-12-13T05:00:17.825Z,0.60
2018-12-13T05:02:40.467Z,0.70
2018-12-13T05:05:03.443Z,0.70
2018-12-13T05:07:26.087Z,0.80
2018-12-13T05:09:48.737Z,0.80
2018-12-13T05:12:11.308Z,0.90
2018-12-13T05:14:33.940Z,0.90
2018-12-13T06:00:17.265Z,0.70
2018-12-13T06:02:54.096Z,0.70
2018-12-13T06:05:16.787Z,0.80
2018-12-13T06:07:39.500Z,0.80
2018-12-13T06:10:02.365Z,0.80
2018-12-13T06:12:24.961Z,0.80
2018-12-13T06:14:47.604Z,0.80
2018-12-13T07:00:29.047Z,0.50
2018-12-13T07:02:51.651Z,0.60
2018-12-13T07:05:14.213Z,0.60
2018-12-13T07:07:36.817Z,0.50
2018-12-13T07:09:59.408Z,0.60
2018-12-13T07:12:21.989Z,0.60
2018-12-13T07:14:44.578Z,0.60
2018-12-13T08:00:24.678Z,0.80
2018-12-13T08:02:47.445Z,0.90
2018-12-13T08:05:10.365Z,1.00
2018-12-13T08:07:33.279Z,1.20
2018-12-13T08:09:56.000Z,1.20
2018-12-13T08:12:18.671Z,1.30
2018-12-13T08:14:41.587Z,1.40
2018-12-13T09:00:17.598Z,1.70
2018-12-13T09:02:40.209Z,1.70
2018-12-13T09:05:02.957Z,1.70
2018-12-13T09:07:25.686Z,1.80
2018-12-13T09:09:54.640Z,1.80
2018-12-13T09:12:17.300Z,1.80
2018-12-13T09:14:39.962Z,1.80
2018-12-13T10:00:18.848Z,1.90
2018-12-13T10:02:42.313Z,1.80
2018-12-13T10:05:05.170Z,1.70
2018-12-13T10:07:48.607Z,1.70
2018-12-13T10:10:11.388Z,1.70
2018-12-13T10:12:59.683Z,1.60
2018-12-13T11:01:43.629Z,0.80
2018-12-13T11:04:06.243Z,0.80
2018-12-13T11:06:28.844Z,0.80
2018-12-13T11:08:51.513Z,0.80
2018-12-13T11:11:14.150Z,0.80
2018-12-13T11:13:37.048Z,0.80
2018-12-13T12:02:36.060Z,1.00
2018-12-13T12:04:58.821Z,1.00
2018-12-13T12:07:21.485Z,1.00
2018-12-13T12:09:45.548Z,1.00
2018-12-13T12:12:08.265Z,1.00
2018-12-13T12:14:30.957Z,1.00
2018-12-13T13:00:19.557Z,1.00
2018-12-13T15:02:10.204Z,0.80
2018-12-13T15:04:32.840Z,0.80
2018-12-13T15:06:55.525Z,0.80
2018-12-13T15:09:18.200Z,0.80
2018-12-13T15:11:40.799Z,0.80
2018-12-13T15:14:04.398Z,0.80
2018-12-13T16:02:38.308Z,0.80
2018-12-13T16:05:01.100Z,0.80
2018-12-13T16:07:23.757Z,0.80
2018-12-13T17:00:19.729Z,0.80
2018-12-13T17:02:43.025Z,0.80
2018-12-13T18:05:44.081Z,0.80
2018-12-13T18:08:06.721Z,0.80
2018-12-13T18:10:52.703Z,0.80
2018-12-13T18:13:16.413Z,0.80
2018-12-13T19:02:21.389Z,0.70
2018-12-13T19:04:44.019Z,0.80
2018-12-13T20:02:39.453Z,0.90
2018-12-13T20:05:02.162Z,0.80
2018-12-13T20:07:24.985Z,0.90
2018-12-13T20:10:07.762Z,0.90
2018-12-13T20:12:30.515Z,0.90
2018-12-13T20:14:53.887Z,0.90
2018-12-13T21:00:44.465Z,0.80
2018-12-13T21:03:07.104Z,0.80
2018-12-13T21:05:29.733Z,0.80
2018-12-13T21:08:08.917Z,0.80
2018-12-13T21:10:31.524Z,0.80
2018-12-13T21:12:54.108Z,0.80
